Time;durP1;ratioP1;P1;durP2;ratioP2;P2;SDS_P1;SDS_P2;PMS_P1;PMS_P2;Temp;Humidity;BMP_temperature;BMP_pressure;BME280_temperature;BME280_humidity;BME280_pressure;Samples;Min_cycle;Max_cycle;Signal;HPM_P1;HPM_P2
2023/11/25 00:02:13;;;;;;;6.23;1.87;;;1.40;99.90;;;;;;4871170;29;21335;-80
2023/11/25 00:04:38;;;;;;;4.70;2.50;;;1.50;99.90;;;;;;4873946;29;20037;-80
2023/11/25 00:07:04;;;;;;;8.70;3.07;;;1.40;99.90;;;;;;4874802;29;20033;-80
2023/11/25 00:09:30;;;;;;;6.17;1.80;;;1.50;99.90;;;;;;4874239;29;20485;-81
2023/11/25 00:11:55;;;;;;;7.30;2.07;;;1.50;99.90;;;;;;4875209;29;20033;-80
2023/11/25 00:14:21;;;;;;;6.57;2.10;;;1.40;99.90;;;;;;4874914;29;20029;-80
2023/11/25 00:16:46;;;;;;;5.47;2.57;;;1.40;99.90;;;;;;4874811;29;20037;-81
2023/11/25 00:19:12;;;;;;;4.07;1.90;;;1.40;99.90;;;;;;4874287;29;20033;-80
2023/11/25 00:21:37;;;;;;;4.30;1.50;;;1.40;99.90;;;;;;4874798;29;20060;-80
2023/11/25 00:24:03;;;;;;;7.30;2.07;;;1.50;99.90;;;;;;4874879;29;20049;-80
2023/11/25 00:26:28;;;;;;;5.07;1.77;;;1.50;99.90;;;;;;4872865;29;20067;-80
2023/11/25 00:28:54;;;;;;;4.30;2.00;;;1.50;99.90;;;;;;4873036;29;20163;-80
2023/11/25 00:31:20;;;;;;;7.37;2.17;;;1.40;99.90;;;;;;4873469;29;20097;-80
2023/11/25 00:33:45;;;;;;;5.53;2.27;;;1.50;99.90;;;;;;4875062;29;20044;-81
2023/11/25 00:36:11;;;;;;;3.50;1.47;;;1.50;99.90;;;;;;4873285;29;20043;-80
2023/11/25 00:38:37;;;;;;;4.50;1.40;;;1.50;99.90;;;;;;4873691;29;20422;-80
2023/11/25 00:41:05;;;;;;;3.53;1.40;;;1.60;99.90;;;;;;4876224;29;20060;-81
2023/11/25 00:43:31;;;;;;;2.60;1.30;;;1.60;99.90;;;;;;4873952;29;20047;-80
2023/11/25 00:45:57;;;;;;;3.57;1.67;;;1.50;99.90;;;;;;4874948;29;20163;-80
2023/11/25 00:48:23;;;;;;;3.07;1.30;;;1.60;99.90;;;;;;4876597;29;20088;-81
2023/11/25 00:50:49;;;;;;;3.90;1.57;;;1.60;99.90;;;;;;4878921;29;20749;-80
2023/11/25 00:53:15;;;;;;;4.37;1.63;;;1.60;99.90;;;;;;4880195;29;20033;-80
2023/11/25 00:55:41;;;;;;;5.87;1.70;;;1.60;99.90;;;;;;4874761;29;20440;-80
2023/11/25 00:58:07;;;;;;;3.70;1.50;;;1.70;99.90;;;;;;4875160;29;20156;-81
2023/11/25 01:00:32;;;;;;;8.27;1.93;;;1.60;99.90;;;;;;4876077;29;20077;-81
2023/11/25 01:02:58;;;;;;;4.80;1.50;;;1.50;99.90;;;;;;4875439;29;20040;-81
2023/11/25 01:05:23;;;;;;;6.87;1.90;;;1.40;99.90;;;;;;4875396;29;20033;-81
2023/11/25 01:07:49;;;;;;;5.77;1.90;;;1.30;99.90;;;;;;4875617;29;20053;-81
2023/11/25 01:10:15;;;;;;;6.27;1.70;;;1.30;99.90;;;;;;4873954;29;20120;-81
2023/11/25 01:12:41;;;;;;;5.03;1.70;;;1.30;99.90;;;;;;4874304;29;20056;-80
2023/11/25 01:15:07;;;;;;;4.20;1.40;;;1.30;99.90;;;;;;4873007;29;20073;-81
2023/11/25 01:17:33;;;;;;;5.70;1.60;;;1.30;99.90;;;;;;4875610;29;20033;-80
2023/11/25 01:19:59;;;;;;;4.63;1.60;;;1.30;99.90;;;;;;4874613;29;20037;-80
2023/11/25 01:22:25;;;;;;;2.97;1.20;;;1.30;99.90;;;;;;4874723;29;21143;-81
2023/11/25 01:24:52;;;;;;;4.43;1.40;;;1.30;99.90;;;;;;4873489;29;20029;-81
2023/11/25 01:27:17;;;;;;;4.87;1.50;;;1.30;99.90;;;;;;4874271;29;20101;-81
2023/11/25 01:29:43;;;;;;;4.40;1.30;;;1.20;99.90;;;;;;4874876;29;20041;-80
2023/11/25 01:32:09;;;;;;;2.50;1.30;;;1.10;99.90;;;;;;4874735;29;20040;-80
2023/11/25 01:34:35;;;;;;;1.30;0.93;;;1.00;99.90;;;;;;4873677;29;20033;-80
2023/11/25 01:37:00;;;;;;;1.60;0.80;;;0.80;99.90;;;;;;4873519;29;20079;-80
2023/11/25 01:39:26;;;;;;;3.53;1.00;;;0.70;99.90;;;;;;4873439;29;20501;-80
2023/11/25 01:41:52;;;;;;;1.57;0.97;;;0.60;99.90;;;;;;4873991;29;20025;-81
2023/11/25 01:44:17;;;;;;;2.37;1.10;;;0.50;99.90;;;;;;4872724;29;20041;-81
2023/11/25 01:46:43;;;;;;;2.43;1.07;;;0.50;99.90;;;;;;4872927;29;20025;-81
2023/11/25 01:49:10;;;;;;;2.67;0.80;;;0.40;99.90;;;;;;4874347;29;20089;-81
2023/11/25 01:51:37;;;;;;;3.73;0.90;;;0.40;99.90;;;;;;4872731;29;20044;-80
2023/11/25 01:54:04;;;;;;;1.50;1.00;;;0.40;99.90;;;;;;4872805;29;20033;-81
2023/11/25 01:56:31;;;;;;;1.97;0.93;;;0.50;99.90;;;;;;4871888;29;20029;-81
2023/11/25 01:58:58;;;;;;;1.30;0.90;;;0.50;99.90;;;;;;4872675;29;21129;-80
2023/11/25 02:01:25;;;;;;;2.60;1.10;;;0.50;99.90;;;;;;4872861;29;20041;-80
2023/11/25 02:03:50;;;;;;;0.93;0.77;;;0.50;99.90;;;;;;4872631;29;20060;-80
2023/11/25 02:06:16;;;;;;;1.73;0.80;;;0.50;99.90;;;;;;4870469;29;20116;-80
2023/11/25 02:08:45;;;;;;;1.10;0.90;;;0.50;99.90;;;;;;4871194;29;20148;-81
2023/11/25 02:11:10;;;;;;;1.07;0.90;;;0.50;99.90;;;;;;4870161;29;20173;-80
2023/11/25 02:13:36;;;;;;;4.40;1.40;;;0.50;99.90;;;;;;4872439;29;20033;-80
2023/11/25 02:16:02;;;;;;;2.17;1.10;;;0.60;99.90;;;;;;4870129;29;20037;-80
2023/11/25 02:18:28;;;;;;;2.63;1.13;;;0.50;99.90;;;;;;4873139;29;20037;-80
2023/11/25 02:20:54;;;;;;;1.77;0.97;;;0.50;99.90;;;;;;4874798;29;20044;-80
2023/11/25 02:23:24;;;;;;;2.90;0.90;;;0.50;99.90;;;;;;4874296;29;20041;-80
2023/11/25 02:25:52;;;;;;;2.77;1.00;;;0.50;99.90;;;;;;4873578;29;20065;-80
2023/11/25 02:28:21;;;;;;;4.33;1.60;;;0.50;99.90;;;;;;4873894;29;20493;-80
2023/11/25 02:30:47;;;;;;;4.70;1.50;;;0.50;99.90;;;;;;4877701;29;20640;-80
2023/11/25 02:33:17;;;;;;;2.27;1.10;;;0.40;99.90;;;;;;4888314;29;20021;-79
2023/11/25 02:35:43;;;;;;;2.53;1.40;;;0.30;99.90;;;;;;4885382;29;20028;-79
2023/11/25 02:38:10;;;;;;;2.97;1.27;;;0.30;99.90;;;;;;4872724;29;20079;-79
2023/11/25 02:40:37;;;;;;;2.33;1.10;;;0.40;99.90;;;;;;4872331;29;20033;-79
2023/11/25 02:43:03;;;;;;;1.43;0.97;;;0.30;99.90;;;;;;4872428;29;20061;-80
2023/11/25 02:45:29;;;;;;;2.40;1.33;;;0.30;99.90;;;;;;4872439;29;20129;-80
2023/11/25 02:47:55;;;;;;;4.13;1.13;;;0.20;99.90;;;;;;4873600;29;20434;-80
2023/11/25 02:50:20;;;;;;;1.83;1.10;;;0.20;99.90;;;;;;4872562;29;20032;-80
2023/11/25 02:52:47;;;;;;;3.30;1.20;;;0.20;99.90;;;;;;4873416;29;20100;-80
2023/11/25 02:55:12;;;;;;;4.50;1.33;;;0.20;99.90;;;;;;4873075;29;20036;-80
2023/11/25 02:57:43;;;;;;;4.10;1.10;;;0.10;99.90;;;;;;4873120;29;20056;-80
2023/11/25 03:00:27;;;;;;;3.73;1.00;;;0.10;99.90;;;;;;4872502;29;20109;-80
2023/11/25 03:03:00;;;;;;;1.73;0.80;;;0.00;99.90;;;;;;4872030;29;20360;-80
2023/11/25 03:05:31;;;;;;;1.60;1.00;;;0.00;99.90;;;;;;4871936;29;20037;-80
2023/11/25 03:07:57;;;;;;;1.23;0.90;;;0.00;99.90;;;;;;4872451;29;20033;-80
2023/11/25 03:10:26;;;;;;;3.73;1.00;;;-0.10;99.90;;;;;;4871971;29;20029;-80
2023/11/25 03:12:53;;;;;;;1.63;1.10;;;0.00;99.90;;;;;;4870239;29;20466;-80
2023/11/25 03:15:18;;;;;;;4.20;1.27;;;-0.10;99.90;;;;;;4869491;29;20037;-80
2023/11/25 03:17:44;;;;;;;1.73;0.93;;;-0.10;99.90;;;;;;4871471;29;20033;-80
2023/11/25 03:20:10;;;;;;;6.20;1.17;;;-0.10;99.90;;;;;;4872193;29;20164;-80
2023/11/25 03:22:35;;;;;;;2.70;1.00;;;-0.10;99.90;;;;;;4872530;29;20032;-80
2023/11/25 03:25:01;;;;;;;3.13;0.87;;;-0.10;99.90;;;;;;4871137;29;20032;-80
2023/11/25 03:27:31;;;;;;;4.33;1.27;;;-0.10;99.90;;;;;;4871952;29;20033;-80
2023/11/25 03:29:57;;;;;;;2.00;1.00;;;-0.10;99.90;;;;;;4871128;29;20075;-80
2023/11/25 03:32:25;;;;;;;1.27;1.17;;;-0.10;99.90;;;;;;4872358;29;20095;-80
2023/11/25 03:34:51;;;;;;;2.10;0.93;;;-0.10;99.90;;;;;;4872108;29;20478;-80
2023/11/25 03:37:16;;;;;;;5.93;1.20;;;-0.10;99.90;;;;;;4871822;29;20076;-80
2023/11/25 03:39:42;;;;;;;3.23;1.13;;;-0.10;99.90;;;;;;4872422;29;20037;-80
2023/11/25 03:42:08;;;;;;;2.83;0.90;;;-0.10;99.90;;;;;;4872416;29;20024;-80
2023/11/25 03:44:34;;;;;;;1.73;1.00;;;-0.10;99.90;;;;;;4872946;29;20691;-80
2023/11/25 03:47:01;;;;;;;2.67;1.07;;;-0.10;99.90;;;;;;4872699;29;20029;-81
2023/11/25 03:49:27;;;;;;;3.03;1.00;;;-0.10;99.90;;;;;;4872676;29;20080;-81
2023/11/25 03:51:53;;;;;;;1.33;1.00;;;-0.10;99.90;;;;;;4871211;29;20052;-81
2023/11/25 03:54:18;;;;;;;5.07;2.50;;;-0.10;99.90;;;;;;4871002;29;20045;-80
2023/11/25 03:56:44;;;;;;;3.33;1.30;;;-0.10;99.90;;;;;;4872418;29;20066;-80
2023/11/25 03:59:10;;;;;;;1.60;1.00;;;0.00;99.90;;;;;;4874214;29;20085;-80
2023/11/25 04:01:35;;;;;;;4.83;0.97;;;0.00;99.90;;;;;;4873731;29;20100;-80
2023/11/25 04:04:03;;;;;;;3.13;1.10;;;0.00;99.90;;;;;;4873576;29;20041;-80
2023/11/25 04:06:29;;;;;;;3.37;1.00;;;0.00;99.90;;;;;;4873686;29;20182;-80
2023/11/25 04:08:55;;;;;;;6.07;1.20;;;0.10;99.90;;;;;;4872988;29;20041;-80
2023/11/25 04:11:20;;;;;;;2.77;1.10;;;0.10;99.90;;;;;;4875846;29;20025;-80
2023/11/25 04:13:47;;;;;;;2.67;1.20;;;0.10;99.90;;;;;;4876626;29;20396;-80
2023/11/25 04:16:12;;;;;;;6.03;1.20;;;0.10;99.90;;;;;;4871908;29;20041;-80
2023/11/25 04:18:38;;;;;;;1.90;1.30;;;0.10;99.90;;;;;;4871336;29;20037;-80
2023/11/25 04:21:04;;;;;;;2.57;1.30;;;0.10;99.90;;;;;;4871106;29;20163;-80
2023/11/25 04:23:30;;;;;;;3.90;1.10;;;0.10;99.90;;;;;;4871183;29;20103;-80
2023/11/25 04:25:56;;;;;;;4.80;1.23;;;0.10;99.90;;;;;;4867921;29;21103;-80
2023/11/25 04:28:21;;;;;;;3.20;1.30;;;0.10;99.90;;;;;;4869045;29;20155;-80
2023/11/25 04:30:47;;;;;;;2.30;1.20;;;0.10;99.90;;;;;;4870803;29;20466;-80
2023/11/25 04:33:14;;;;;;;4.20;1.13;;;0.10;99.90;;;;;;4870599;29;20029;-80
2023/11/25 04:35:39;;;;;;;4.70;1.20;;;0.10;99.90;;;;;;4865879;29;20120;-80
2023/11/25 04:38:05;;;;;;;3.40;1.53;;;0.10;99.90;;;;;;4870506;29;20113;-80
2023/11/25 04:40:31;;;;;;;3.70;1.10;;;0.10;99.90;;;;;;4870980;29;20029;-80
2023/11/25 04:42:57;;;;;;;3.73;1.40;;;0.10;99.90;;;;;;4870550;29;20035;-80
2023/11/25 04:45:22;;;;;;;3.87;1.20;;;0.20;99.90;;;;;;4869165;29;20097;-82
2023/11/25 04:47:53;;;;;;;5.07;1.43;;;0.10;99.90;;;;;;4869516;29;20693;-79
2023/11/25 04:50:20;;;;;;;4.47;1.00;;;0.10;99.90;;;;;;4871954;29;20033;-81
2023/11/25 04:52:46;;;;;;;2.93;0.90;;;0.10;99.90;;;;;;4872819;29;20119;-80
2023/11/25 04:55:12;;;;;;;2.83;1.27;;;0.10;99.90;;;;;;4871295;29;20029;-80
2023/11/25 04:57:38;;;;;;;2.27;1.10;;;0.10;99.90;;;;;;4871814;29;20398;-80
2023/11/25 05:00:08;;;;;;;2.77;1.47;;;0.10;99.90;;;;;;4872001;29;20089;-80
2023/11/25 05:02:34;;;;;;;3.53;0.97;;;0.00;99.90;;;;;;4871188;29;20115;-80
2023/11/25 05:05:00;;;;;;;4.40;1.57;;;0.10;99.90;;;;;;4873985;29;20703;-80
2023/11/25 05:07:25;;;;;;;4.63;1.20;;;0.10;99.90;;;;;;4873369;29;20041;-80
2023/11/25 05:09:52;;;;;;;3.23;1.10;;;0.00;99.90;;;;;;4871532;29;20037;-80
2023/11/25 05:12:19;;;;;;;6.17;1.43;;;0.00;99.90;;;;;;4873278;29;20033;-80
2023/11/25 05:14:45;;;;;;;4.53;1.07;;;0.00;99.90;;;;;;4872078;29;21480;-80
2023/11/25 05:17:10;;;;;;;5.13;1.20;;;0.00;99.90;;;;;;4872179;29;20116;-80
2023/11/25 05:19:36;;;;;;;3.27;0.93;;;-0.10;99.90;;;;;;4871662;29;20290;-80
2023/11/25 05:22:03;;;;;;;7.33;1.10;;;0.00;99.90;;;;;;4872231;29;20164;-81
2023/11/25 05:24:28;;;;;;;2.63;1.10;;;-0.10;99.90;;;;;;4873212;29;20961;-80
2023/11/25 05:26:54;;;;;;;5.37;1.40;;;-0.10;99.90;;;;;;4888571;29;20035;-79
2023/11/25 05:29:20;;;;;;;2.80;1.30;;;0.00;99.90;;;;;;4891223;29;20084;-80
2023/11/25 05:31:46;;;;;;;3.17;1.10;;;-0.10;99.90;;;;;;4880117;29;20538;-80
2023/11/25 05:34:12;;;;;;;5.13;1.43;;;-0.10;99.90;;;;;;4873792;29;20025;-80
2023/11/25 05:36:39;;;;;;;3.80;1.50;;;-0.10;99.90;;;;;;4870814;29;20131;-81
2023/11/25 05:39:12;;;;;;;3.67;1.30;;;-0.10;99.90;;;;;;4871709;29;20045;-80
2023/11/25 05:41:38;;;;;;;5.60;1.63;;;-0.10;99.90;;;;;;4872994;29;20492;-80
2023/11/25 05:44:07;;;;;;;6.27;1.20;;;-0.10;99.90;;;;;;4872727;29;20128;-80
2023/11/25 05:46:33;;;;;;;4.20;1.40;;;-0.10;99.90;;;;;;4872852;29;20115;-80
2023/11/25 05:48:59;;;;;;;9.20;2.63;;;-0.10;99.90;;;;;;4872043;29;20037;-80
2023/11/25 05:51:32;;;;;;;8.30;2.43;;;-0.20;99.90;;;;;;4871847;29;20044;-80
2023/11/25 05:53:58;;;;;;;4.00;1.40;;;-0.10;99.90;;;;;;4870558;29;20029;-80
2023/11/25 05:56:26;;;;;;;3.80;1.20;;;-0.10;99.90;;;;;;4869699;29;20044;-81
2023/11/25 05:58:52;;;;;;;2.27;1.30;;;-0.10;99.90;;;;;;4867943;29;20086;-81
2023/11/25 06:01:19;;;;;;;3.33;1.13;;;-0.20;99.90;;;;;;4866951;29;20072;-81
2023/11/25 06:03:45;;;;;;;4.73;1.33;;;-0.10;99.90;;;;;;4869189;29;20052;-80
2023/11/25 06:06:11;;;;;;;3.17;1.33;;;-0.20;99.90;;;;;;4869330;29;20025;-81
2023/11/25 06:08:37;;;;;;;4.40;1.47;;;-0.10;99.90;;;;;;4870441;29;20064;-81
2023/11/25 06:11:03;;;;;;;7.67;1.47;;;-0.20;99.90;;;;;;4870256;29;20115;-80
2023/11/25 06:13:29;;;;;;;3.30;1.27;;;-0.20;99.90;;;;;;4867892;29;20029;-81
2023/11/25 06:15:56;;;;;;;5.00;1.60;;;-0.20;99.90;;;;;;4865197;29;20025;-81
2023/11/25 06:18:22;;;;;;;2.30;1.30;;;-0.20;99.90;;;;;;4863946;29;20066;-81
2023/11/25 06:20:48;;;;;;;3.63;1.40;;;-0.20;99.90;;;;;;4868674;29;20894;-81
2023/11/25 06:23:14;;;;;;;4.87;1.87;;;-0.20;99.90;;;;;;4868854;29;20413;-81
2023/11/25 06:25:42;;;;;;;2.90;1.47;;;-0.20;99.90;;;;;;4869627;29;20036;-81
2023/11/25 06:28:14;;;;;;;4.63;1.40;;;-0.30;99.90;;;;;;4854447;29;20062;-81
2023/11/25 06:30:40;;;;;;;6.10;1.90;;;-0.20;99.90;;;;;;4870146;29;20060;-81
2023/11/25 06:33:06;;;;;;;6.10;1.70;;;-0.20;99.90;;;;;;4871726;29;20056;-81
2023/11/25 06:35:33;;;;;;;8.43;1.60;;;-0.20;99.90;;;;;;4869606;29;20033;-80
2023/11/25 06:37:59;;;;;;;3.33;1.13;;;-0.20;99.90;;;;;;4869258;29;20116;-81
2023/11/25 06:40:25;;;;;;;2.90;1.20;;;-0.20;99.90;;;;;;4869411;29;20108;-81
2023/11/25 06:42:50;;;;;;;3.07;1.50;;;-0.20;99.90;;;;;;4870663;29;20081;-81
2023/11/25 06:45:16;;;;;;;4.90;1.57;;;-0.20;99.90;;;;;;4870919;29;20133;-81
2023/11/25 06:47:41;;;;;;;6.80;1.90;;;-0.20;99.90;;;;;;4871779;29;20029;-81
2023/11/25 06:50:09;;;;;;;5.20;1.30;;;-0.20;99.90;;;;;;4869681;29;20044;-81
2023/11/25 06:52:34;;;;;;;4.60;1.20;;;-0.20;99.90;;;;;;4870513;29;20055;-81
2023/11/25 06:55:00;;;;;;;6.40;1.30;;;-0.20;99.90;;;;;;4870644;29;20052;-81
2023/11/25 06:57:26;;;;;;;3.67;1.40;;;-0.20;99.90;;;;;;4871305;29;20489;-81
2023/11/25 06:59:51;;;;;;;7.53;1.40;;;-0.20;99.90;;;;;;4868629;29;20040;-80
2023/11/25 07:02:18;;;;;;;3.07;1.30;;;-0.10;99.90;;;;;;4871442;29;20044;-81
2023/11/25 07:04:44;;;;;;;4.87;1.53;;;-0.20;99.90;;;;;;4871141;29;20041;-81
2023/11/25 07:07:10;;;;;;;5.50;1.80;;;-0.20;99.90;;;;;;4871384;29;20032;-81
2023/11/25 07:09:36;;;;;;;5.07;1.87;;;-0.20;99.90;;;;;;4870402;29;20615;-81
2023/11/25 07:12:04;;;;;;;4.23;1.77;;;-0.20;99.90;;;;;;4869421;29;20057;-80
2023/11/25 07:14:29;;;;;;;4.23;1.70;;;-0.20;99.90;;;;;;4868151;29;20044;-81
2023/11/25 07:16:56;;;;;;;6.97;1.90;;;-0.20;99.90;;;;;;4869129;29;21459;-81
2023/11/25 07:19:22;;;;;;;5.23;1.63;;;-0.20;99.90;;;;;;4871119;29;20587;-81
2023/11/25 07:21:47;;;;;;;5.17;2.00;;;-0.20;99.90;;;;;;4870785;29;20127;-81
2023/11/25 07:24:13;;;;;;;7.00;1.87;;;-0.20;99.90;;;;;;4870248;29;20060;-81
2023/11/25 07:26:42;;;;;;;3.37;1.47;;;-0.20;99.90;;;;;;4869774;29;20021;-81
2023/11/25 07:29:10;;;;;;;6.33;2.10;;;-0.20;99.90;;;;;;4870401;29;20167;-81
2023/11/25 07:31:36;;;;;;;2.77;1.80;;;-0.20;99.90;;;;;;4871501;29;20440;-81
2023/11/25 07:34:03;;;;;;;3.30;1.53;;;-0.20;99.90;;;;;;4873484;29;20035;-81
2023/11/25 07:36:29;;;;;;;5.53;1.70;;;-0.20;99.90;;;;;;4873871;29;20025;-81
2023/11/25 07:38:55;;;;;;;3.60;1.40;;;-0.20;99.90;;;;;;4869515;29;20085;-81
2023/11/25 07:41:21;;;;;;;3.10;1.23;;;-0.30;99.90;;;;;;4870575;29;20544;-81
2023/11/25 07:43:46;;;;;;;4.47;1.57;;;-0.30;99.90;;;;;;4869408;29;20032;-81
2023/11/25 07:46:12;;;;;;;3.53;1.40;;;-0.30;99.90;;;;;;4868597;29;20029;-81
2023/11/25 07:48:38;;;;;;;5.23;1.67;;;-0.20;99.90;;;;;;4868629;29;20465;-81
2023/11/25 07:51:04;;;;;;;5.33;1.93;;;-0.20;99.90;;;;;;4868034;29;20066;-81
2023/11/25 07:53:31;;;;;;;5.97;1.40;;;-0.20;99.90;;;;;;4869460;29;20111;-81
2023/11/25 07:55:56;;;;;;;3.27;1.43;;;-0.20;99.90;;;;;;4868019;29;20054;-81
2023/11/25 07:58:22;;;;;;;2.93;1.43;;;-0.10;99.90;;;;;;4869441;29;20033;-81
2023/11/25 08:00:49;;;;;;;5.97;1.50;;;-0.10;99.90;;;;;;4870912;29;20068;-81
2023/11/25 08:03:15;;;;;;;3.33;1.30;;;-0.10;99.90;;;;;;4869386;29;20049;-80
2023/11/25 08:05:41;;;;;;;4.50;1.77;;;0.00;99.90;;;;;;4869664;29;20065;-81
2023/11/25 08:08:07;;;;;;;3.60;1.50;;;0.10;99.90;;;;;;4869467;29;20093;-80
2023/11/25 08:10:34;;;;;;;4.57;1.57;;;0.10;99.90;;;;;;4868879;29;20068;-81
2023/11/25 08:13:00;;;;;;;3.00;1.50;;;0.20;99.90;;;;;;4870145;29;20035;-80
2023/11/25 08:15:26;;;;;;;6.13;1.60;;;0.20;99.90;;;;;;4870163;29;20122;-81
2023/11/25 08:17:52;;;;;;;5.77;1.80;;;0.30;99.90;;;;;;4871962;29;20044;-80
2023/11/25 08:20:17;;;;;;;3.53;1.47;;;0.40;99.90;;;;;;4879242;29;20021;-80
2023/11/25 08:22:43;;;;;;;5.03;1.70;;;0.40;99.90;;;;;;4892626;29;20081;-79
2023/11/25 08:25:09;;;;;;;5.73;1.67;;;0.50;99.90;;;;;;4891338;29;20033;-80
2023/11/25 08:27:35;;;;;;;4.43;1.83;;;0.60;99.90;;;;;;4872095;29;20560;-80
2023/11/25 08:30:01;;;;;;;5.00;1.70;;;0.60;99.90;;;;;;4870938;29;20037;-80
2023/11/25 08:32:30;;;;;;;8.27;2.03;;;0.60;99.90;;;;;;4872055;29;20065;-80
2023/11/25 08:34:56;;;;;;;3.70;1.67;;;0.70;99.90;;;;;;4871781;29;20056;-81
2023/11/25 08:37:27;;;;;;;16.37;3.83;;;0.60;99.90;;;;;;4871972;29;20061;-80
2023/11/25 08:39:56;;;;;;;4.47;1.80;;;0.70;99.90;;;;;;4873716;29;20033;-80
2023/11/25 08:42:24;;;;;;;8.43;2.10;;;0.70;99.90;;;;;;4871809;29;20029;-81
2023/11/25 08:44:51;;;;;;;8.87;2.30;;;0.70;99.90;;;;;;4870452;29;20040;-81
2023/11/25 08:47:16;;;;;;;4.60;1.50;;;0.70;99.90;;;;;;4872527;29;20061;-80
2023/11/25 08:49:42;;;;;;;7.87;1.90;;;0.60;99.90;;;;;;4872784;29;20041;-80
2023/11/25 08:52:08;;;;;;;4.87;1.73;;;0.60;99.90;;;;;;4871951;29;20032;-80
2023/11/25 08:54:36;;;;;;;5.00;1.80;;;0.70;99.90;;;;;;4870225;29;20033;-80
2023/11/25 08:57:08;;;;;;;3.67;2.10;;;0.70;99.90;;;;;;4870485;29;20167;-80
2023/11/25 08:59:34;;;;;;;7.37;2.10;;;0.70;99.90;;;;;;4871327;29;20037;-80
2023/11/25 09:02:03;;;;;;;5.67;2.20;;;0.70;99.90;;;;;;4871309;29;20044;-81
2023/11/25 09:04:35;;;;;;;8.10;1.80;;;0.70;99.90;;;;;;4871021;29;20066;-80
2023/11/25 09:07:01;;;;;;;6.87;2.07;;;0.80;99.90;;;;;;4870411;29;20025;-80
2023/11/25 09:09:27;;;;;;;5.43;1.70;;;0.80;99.90;;;;;;4870056;29;20465;-81
2023/11/25 09:11:54;;;;;;;6.03;2.23;;;0.80;99.90;;;;;;4870122;29;20037;-80
2023/11/25 09:14:20;;;;;;;4.47;1.87;;;0.90;99.90;;;;;;4868698;29;20037;-81
2023/11/25 09:16:46;;;;;;;5.63;2.00;;;0.90;99.90;;;;;;4869997;29;20045;-80
2023/11/25 09:19:13;;;;;;;11.00;2.73;;;1.00;99.90;;;;;;4871032;29;20041;-81
2023/11/25 09:21:39;;;;;;;6.57;2.10;;;1.00;99.90;;;;;;4867531;29;20404;-82
2023/11/25 09:24:05;;;;;;;4.43;2.10;;;1.00;99.90;;;;;;4866872;29;20075;-82
2023/11/25 09:26:31;;;;;;;7.33;2.27;;;1.10;99.90;;;;;;4867874;29;20073;-81
2023/11/25 09:28:56;;;;;;;9.20;2.37;;;1.10;99.90;;;;;;4868075;29;20076;-81
2023/11/25 09:31:22;;;;;;;5.60;2.07;;;1.10;99.90;;;;;;4867437;29;20035;-81
2023/11/25 09:33:50;;;;;;;7.90;2.23;;;1.10;99.90;;;;;;4866567;29;20036;-82
2023/11/25 09:36:16;;;;;;;7.00;2.10;;;1.10;99.90;;;;;;4867369;29;20040;-82
2023/11/25 09:38:42;;;;;;;7.27;2.20;;;1.10;99.90;;;;;;4862574;29;20586;-81
2023/11/25 09:41:07;;;;;;;7.27;1.93;;;1.10;99.90;;;;;;4857557;29;20119;-82
2023/11/25 09:43:34;;;;;;;7.70;1.87;;;1.10;99.90;;;;;;4860712;29;21372;-81
2023/11/25 09:46:01;;;;;;;8.27;2.40;;;1.10;99.90;;;;;;4858212;29;20029;-82
2023/11/25 09:48:27;;;;;;;6.73;2.00;;;1.10;99.90;;;;;;4859848;29;20033;-81
2023/11/25 09:50:53;;;;;;;6.97;2.40;;;1.10;99.90;;;;;;4856716;29;20480;-82
2023/11/25 09:53:29;;;;;;;9.27;2.70;;;1.10;99.90;;;;;;4856753;29;20068;-82
2023/11/25 09:56:16;;;;;;;8.47;2.87;;;1.10;99.90;;;;;;4855091;29;20025;-82
2023/11/25 09:58:42;;;;;;;6.20;2.10;;;1.10;99.90;;;;;;4855363;29;20113;-82
2023/11/25 10:01:12;;;;;;;5.53;2.47;;;1.10;99.90;;;;;;4854955;29;20076;-81
2023/11/25 10:03:39;;;;;;;6.83;2.30;;;1.10;99.90;;;;;;4856777;29;20093;-82
2023/11/25 10:06:05;;;;;;;10.43;2.47;;;1.20;99.90;;;;;;4856253;29;20033;-82
2023/11/25 10:08:34;;;;;;;5.20;1.93;;;1.20;99.90;;;;;;4857075;29;20451;-82
2023/11/25 10:11:07;;;;;;;9.47;1.90;;;1.30;99.90;;;;;;4857104;29;20132;-82
2023/11/25 10:13:38;;;;;;;6.47;2.00;;;1.30;99.90;;;;;;4857440;29;20044;-82
2023/11/25 10:16:06;;;;;;;5.50;2.07;;;1.30;99.90;;;;;;4855241;29;20036;-82
2023/11/25 10:18:35;;;;;;;9.33;2.40;;;1.30;99.90;;;;;;4858723;29;20105;-82
2023/11/25 10:21:00;;;;;;;10.33;2.20;;;1.30;99.90;;;;;;4860582;29;20037;-82
2023/11/25 10:23:27;;;;;;;6.23;2.10;;;1.30;99.90;;;;;;4869111;29;20096;-80
2023/11/25 10:25:53;;;;;;;8.00;2.30;;;1.20;99.90;;;;;;4868649;29;20077;-81
2023/11/25 10:28:25;;;;;;;6.47;2.73;;;1.30;99.90;;;;;;4867595;29;20052;-81
2023/11/25 10:30:55;;;;;;;9.20;2.77;;;1.20;99.90;;;;;;4867217;29;20151;-79
2023/11/25 10:33:24;;;;;;;9.20;2.77;;;1.30;99.90;;;;;;4869414;29;20544;-82
2023/11/25 10:35:51;;;;;;;12.70;2.53;;;1.30;99.90;;;;;;4871041;29;20454;-81
2023/11/25 10:38:21;;;;;;;9.60;2.30;;;1.40;99.90;;;;;;4871120;29;20040;-81
2023/11/25 10:40:50;;;;;;;8.97;2.63;;;1.30;99.90;;;;;;4870053;29;20032;-81
2023/11/25 10:43:16;;;;;;;9.60;2.37;;;1.40;99.90;;;;;;4872474;29;20040;-81
2023/11/25 10:45:46;;;;;;;7.47;2.47;;;1.40;99.90;;;;;;4872801;29;20044;-82
2023/11/25 10:48:12;;;;;;;8.03;2.50;;;1.40;99.90;;;;;;4874115;29;20067;-84
2023/11/25 10:50:40;;;;;;;14.23;2.63;;;1.40;99.90;;;;;;4873958;29;20033;-82
2023/11/25 10:53:07;;;;;;;8.23;2.03;;;1.40;99.90;;;;;;4873099;29;20033;-81
2023/11/25 10:55:33;;;;;;;6.73;2.60;;;1.40;99.90;;;;;;4871714;29;20259;-83
2023/11/25 10:58:00;;;;;;;7.87;2.63;;;1.40;99.90;;;;;;4872169;29;20035;-82
2023/11/25 11:00:31;;;;;;;6.57;2.20;;;1.40;99.90;;;;;;4868192;29;20097;-82
2023/11/25 11:03:01;;;;;;;12.57;2.63;;;1.60;99.90;;;;;;4866987;29;20047;-82
2023/11/25 11:05:40;;;;;;;6.43;1.97;;;1.70;99.90;;;;;;4867672;29;20033;-82
2023/11/25 11:08:16;;;;;;;10.33;2.80;;;1.70;99.90;;;;;;4870799;29;20017;-82
2023/11/25 11:10:51;;;;;;;7.33;2.30;;;1.70;99.90;;;;;;4871666;29;20033;-82
2023/11/25 11:13:22;;;;;;;5.57;2.35;;;1.70;99.90;;;;;;4874759;29;20029;-82
2023/11/25 11:15:51;;;;;;;7.13;2.27;;;1.70;99.90;;;;;;4879353;29;20132;-82
2023/11/25 11:18:26;;;;;;;6.83;2.27;;;1.70;99.90;;;;;;4888380;29;20021;-82
2023/11/25 11:20:54;;;;;;;7.00;2.30;;;1.60;99.90;;;;;;4888111;29;20038;-81
2023/11/25 11:23:22;;;;;;;9.13;2.30;;;1.50;99.90;;;;;;4872684;29;20041;-82
2023/11/25 11:25:59;;;;;;;7.23;2.43;;;1.50;99.90;;;;;;4869939;29;20040;-82
2023/11/25 11:29:03;;;;;;;6.10;2.30;;;1.40;99.90;;;;;;4870949;29;20033;-85
2023/11/25 11:31:44;;;;;;;8.37;2.00;;;1.30;99.90;;;;;;4869957;29;20048;-81
2023/11/25 11:34:10;;;;;;;7.27;2.20;;;1.20;99.90;;;;;;4872045;29;20092;-82
2023/11/25 11:36:35;;;;;;;7.87;2.53;;;1.20;99.90;;;;;;4867964;29;20084;-82
2023/11/25 11:39:01;;;;;;;6.07;2.40;;;1.20;99.90;;;;;;4867502;29;20041;-82
2023/11/25 11:41:29;;;;;;;8.67;2.70;;;1.10;99.90;;;;;;4869054;29;20361;-82
2023/11/25 11:44:09;;;;;;;8.93;2.67;;;1.10;99.90;;;;;;4870384;29;20064;-82
2023/11/25 11:46:41;;;;;;;6.83;2.13;;;1.00;99.90;;;;;;4869496;29;20437;-82
2023/11/25 11:49:12;;;;;;;7.00;3.00;;;1.00;99.90;;;;;;4870643;29;20041;-82
2023/11/25 11:51:57;;;;;;;6.83;2.30;;;1.00;99.90;;;;;;4869455;29;20068;-82
2023/11/25 11:54:24;;;;;;;7.22;2.05;;;1.10;99.90;;;;;;4868652;29;20032;-82
2023/11/25 11:57:01;;;;;;;7.57;2.53;;;1.10;99.90;;;;;;4867619;29;20037;-82
2023/11/25 12:00:13;;;;;;;6.33;2.40;;;1.10;99.90;;;;;;4867434;29;20172;-82
2023/11/25 12:02:42;;;;;;;7.53;2.20;;;1.10;99.90;;;;;;4860123;29;20497;-83
2023/11/25 12:05:11;;;;;;;6.87;2.17;;;1.10;99.90;;;;;;4871188;29;20029;-82
2023/11/25 12:07:37;;;;;;;7.83;2.50;;;1.20;99.90;;;;;;4868567;29;20032;-81
2023/11/25 12:10:05;;;;;;;6.63;2.10;;;1.20;99.90;;;;;;4867729;29;20041;-81
2023/11/25 12:12:31;;;;;;;7.77;2.10;;;1.30;99.90;;;;;;4868792;29;20033;-82
2023/11/25 12:14:56;;;;;;;7.00;2.20;;;1.30;99.90;;;;;;4868930;29;20044;-82
2023/11/25 12:17:22;;;;;;;6.53;2.10;;;1.40;99.90;;;;;;4867244;29;20013;-83
2023/11/25 12:19:47;;;;;;;5.07;1.83;;;1.40;99.90;;;;;;4869447;29;20137;-82
2023/11/25 12:22:14;;;;;;;5.50;2.10;;;1.50;99.90;;;;;;4869131;29;20067;-82
2023/11/25 12:24:41;;;;;;;11.40;2.50;;;1.50;99.90;;;;;;4868804;29;20685;-82
2023/11/25 12:27:10;;;;;;;9.57;2.00;;;1.60;99.90;;;;;;4867716;29;20057;-82
2023/11/25 12:29:35;;;;;;;4.63;1.77;;;1.60;99.90;;;;;;4869432;29;20048;-82
2023/11/25 12:32:01;;;;;;;5.47;1.90;;;1.70;99.90;;;;;;4869896;29;20040;-81
2023/11/25 12:34:29;;;;;;;6.57;2.67;;;1.60;99.90;;;;;;4863894;29;20040;-82
2023/11/25 12:36:59;;;;;;;4.47;1.67;;;1.60;99.90;;;;;;4865712;29;20067;-82
2023/11/25 12:39:25;;;;;;;5.40;2.00;;;1.70;99.90;;;;;;4870192;29;20065;-83
2023/11/25 12:41:51;;;;;;;8.10;2.37;;;1.80;99.90;;;;;;4869678;29;20037;-82
2023/11/25 12:44:19;;;;;;;8.40;2.20;;;1.80;99.90;;;;;;4868966;29;20101;-82
2023/11/25 12:47:00;;;;;;;6.93;2.47;;;1.80;99.90;;;;;;4870165;29;20040;-82
2023/11/25 12:49:26;;;;;;;8.03;2.10;;;1.70;99.90;;;;;;4869559;29;20175;-82
2023/11/25 12:51:52;;;;;;;7.33;2.17;;;1.70;99.90;;;;;;4870004;29;20137;-82
2023/11/25 12:54:21;;;;;;;7.57;2.00;;;1.80;99.90;;;;;;4870583;29;20041;-82